West Palm Beach, FL

2:20 PM EST on December 06, 2016 (GMT -0500)
BANYAN CAY GOLF - Zaretsky Law Group - West Palm Beach | | Change Station

Elev 60 ft 26.73 °N, 80.08 °W | Updated 36 seconds ago

Mostly Cloudy
Mostly Cloudy
84.5 °F
Feels Like 92 °F
N
11.0
Wind Variable Wind from SW
Gusts 15.0 mph

Today
High -- | Low -- °F
--% Chance of Precip.
Yesterday
High -- | Low -- °F
Precip. -- in
Pressure 29.91 in
Visibility 10.0 miles
Clouds Mostly Cloudy 3700 ft
Mostly Cloudy 4800 ft
Mostly Cloudy 7000 ft
Heat Index 92 °F
Dew Point 74 °F
Humidity 71%
Rainfall 0.00 in
Snow Depth Not available.
6:55 AM 5:27 PM
Waxing Crescent, 44% visible
METAR KPBI 061853Z 21013G21KT 10SM BKN037 BKN048 BKN070 29/22 A2991 RMK AO2 SLP127 T02940217
Pressure 29.91 in
Visibility 10.0 miles
Clouds Mostly Cloudy 3700 ft
Mostly Cloudy 4800 ft
Mostly Cloudy 7000 ft
Heat Index 92 °F
Dew Point 74 °F
Humidity 71%
Rainfall 0.00 in
Snow Depth Not available.
6:55 AM 5:27 PM
Waxing Crescent, 44% visible
METAR KPBI 061853Z 21013G21KT 10SM BKN037 BKN048 BKN070 29/22 A2991 RMK AO2 SLP127 T02940217

10-Day Weather Forecast

Almanac

Astronomy

Dec. 06, 2016 Rise Set
Actual Time
Civil Twilight
Nautical Twilight
Astronomical Twilight
Moon
Length of Visible Light
Length of Day
Tomorrow will be .
, % of the Moon is Illuminated

Today's Extremes

State Highs State Lows

Community

WunderPhotos

Upload Photos

1,956,015 photos uploaded!

WunderBlog® & News

Nearby

Air Quality

  Air Quality AQ Index Pollutant
Not available.

Snow Depth

Station Depth Elevation

Earthquake Activity

City Distance Mag. Time & Date
Minimum magnitude displayed is 2.5.

Coastal Water Temperatures

Place Temperature

Stations

Nearby Weather Stations

Station Location Temp. Windchill Dew Point Humidity Wind Precip. Elev Updated Type
                   

Watches & Warnings

There are currently no watches in effect.